Terminal Aerodrome Forecast
Issued by NWS

Home | Current Version | Previous Version | Graphics & Text | Print | Product List | Glossary On
Versions: 1 2 3 4 5 6 7 8 9 10 11 12 13 14 15 16 17 18 19 20 21 22 23 24 25 26 27 28 29 30 31 32 33 34 35 36 37 38
000
FTUS43 KGRB 021732
TAFRHI
TAF
KRHI 021732Z 0218/0318 VRB03KT P6SM -SHRA SCT035 OVC060
      TEMPO 0219/0223 3SM TSRA BR BKN035CB
     FM022300 15003KT P6SM VCSH SCT035 BKN060
      TEMPO 0223/0303 4SM -SHRA BR BKN035
     FM030300 VRB02KT 5SM BR VCSH SCT035 BKN120
     FM030900 00000KT 2SM BR SCT002 BKN008
      TEMPO 0310/0314 1/2SM FG VV002
     FM031500 11005KT P6SM BKN010=

USA.gov is the U.S. government's official web portal to all federal, state and local government web resources and services.